This is the latest recevied weather packets stored in our database for station/object KI4MRC. If no packets are shown the sender has not sent any weather packets the latest 10 day(s).
| Time | Temp. | Humidity | Pressure | Rain* | Wind** | Luminosity | Snow |
|---|---|---|---|---|---|---|---|
| 1777647764 | 29.44° C | 63% | 1013.3 hPa | 0 mm | - | 828 W/m² | - |
| 1777647460 | 30° C | 64% | 1013.4 hPa | 0 mm | - | 810 W/m² | - |
| 1777647158 | 30° C | 64% | 1013.4 hPa | 0 mm | - | 821 W/m² | - |
| 1777646854 | 29.44° C | 67% | 1013.5 hPa | 0 mm | - | 789 W/m² | - |
| 1777646550 | 28.89° C | 66% | 1013.4 hPa | 0 mm | - | 774 W/m² | - |
| 1777646246 | 28.89° C | 68% | 1013.2 hPa | 0 mm | - | 764 W/m² | - |
| 1777645944 | 28.33° C | 70% | 1013.2 hPa | 0 mm | - | 743 W/m² | - |
| 1777645641 | 28.89° C | 69% | 1013.1 hPa | 0 mm | - | 736 W/m² | - |
| 1777645336 | 28.89° C | 69% | 1013.2 hPa | 0 mm | - | 747 W/m² | - |
| 1777645032 | 28.89° C | 69% | 1013.3 hPa | 0 mm | - | 709 W/m² | - |
| 1777644730 | 28.33° C | 71% | 1013.2 hPa | 0 mm | - | 653 W/m² | - |
| 1777644426 | 28.89° C | 71% | 1013.2 hPa | 0 mm | - | 649 W/m² | - |
| 1777644123 | 28.33° C | 75% | 1013.1 hPa | 0 mm | - | 619 W/m² | - |
| 1777643819 | 27.78° C | 78% | 1013.1 hPa | 0 mm | - | 444 W/m² | - |
| 1777643517 | 27.22° C | 78% | 1013.1 hPa | 0 mm | - | 572 W/m² | - |
| 1777643213 | 26.67° C | 81% | 1013.2 hPa | 0 mm | - | 367 W/m² | - |
| 1777642910 | 26.67° C | 80% | 1013.3 hPa | 0 mm | - | 418 W/m² | - |
| 1777642607 | 26.67° C | 81% | 1013.3 hPa | 0 mm | - | 482 W/m² | - |
| 1777642304 | 26.11° C | 83% | 1013.2 hPa | 0 mm | - | 604 W/m² | - |
| 1777642000 | 25.56° C | 84% | 1013.3 hPa | 0 mm | - | 248 W/m² | - |
| 1777641696 | 25.56° C | 85% | 1013 hPa | 0 mm | - | 234 W/m² | - |
| 1777641391 | 25.56° C | 84% | 1013.2 hPa | 0 mm | - | 205 W/m² | - |
| 1777641086 | 25.56° C | 83% | 1013.1 hPa | 0 mm | - | 148 W/m² | - |
| 1777640783 | 26.11° C | 83% | 1013.1 hPa | 0 mm | - | 306 W/m² | - |
| 1777640480 | 26.11° C | 83% | 1012.9 hPa | 0 mm | - | 419 W/m² | - |
* Rain latest hour (hover to see other rain measurements)
** Current wind speed in m/s (hover to see current wind gust speed)